メインページ
METAR-TAF:

METAR-TAF

空港 :

カンザスシティ, ミズーリ州, アメリカ合衆国

カンザスシティ国際空港

緯度: 39-17-50N, 経度: 094-43-50W, 海抜: 312m

現時点の気象観測

当レポートは28分前の12:53(UTC)に作成
の風 6kt
気温 20°C
湿度 88%
気圧 1014 hPa
視程: 12.9km
高度15000ftの雲はほとんどない

METAR: KMCI 251253Z 17006KT 8SM FEW150 20/18 A2995 RMK AO2 SLP132 T02000183

時間: 08:21 (13:21 UTC)

予報

当レポートは2時間1分前の11:20(UTC)に作成
予報は25日の 12時(UTC)から 26日の 12時(UTC)まで有効
の風 8kt
視程: 10km
高度25000ftの雲は散在している
25日の 1900時(UTC)から
の風 8kt
視程: 10km
高度5000ftの千切れ雲あり
26日の 0300時(UTC)から
の風 6kt
視程: 10km
高度5000ftの千切れ雲あり, 積乱雲.
弱いにわか雨, 近辺で激しい雷雨

TAF: KMCI 251120Z 2512/2612 17008KT P6SM SCT250 FM251900 19008KT P6SM BKN050 FM260300 01006KT P6SM -SHRA VCTS BKN050CB

4,000以上の空港の気象観測と天気予報(METAR報とTAF報)

利用可能な観測所は地図上に黄色い丸と赤い丸で示す。

丸の上にカーソルを重ねると観測所名を参照できる。

次にクリックすると気象観測と天気予報を参照できる。

マップの切り替え:黒色「×」印の緑ボタンをクリックして拡大、「-」印の緑ボタンをクリックして縮小、緑色の三角印をクリックして隣りの地図に切り替え


METAR-TAF: